Time;durP1;ratioP1;P1;durP2;ratioP2;P2;SDS_P1;SDS_P2;PMS_P1;PMS_P2;Temp;Humidity;BMP_temperature;BMP_pressure;BME280_temperature;BME280_humidity;BME280_pressure;Samples;Min_cycle;Max_cycle;Signal;HPM_P1;HPM_P2
2023/12/17 00:01:25;;;;;;;1.20;1.10;;;11.20;99.90;;;;;;4995900;28;20207;-87
2023/12/17 00:03:51;;;;;;;1.70;1.57;;;11.10;99.90;;;;;;5013005;28;20237;-88
2023/12/17 00:06:17;;;;;;;0.97;0.87;;;11.10;99.90;;;;;;4998039;28;20241;-87
2023/12/17 00:08:43;;;;;;;1.90;1.27;;;11.10;99.90;;;;;;5012891;28;20215;-88
2023/12/17 00:11:09;;;;;;;1.43;1.33;;;11.10;99.90;;;;;;4995975;28;20237;-87
2023/12/17 00:13:35;;;;;;;1.67;1.13;;;11.10;99.90;;;;;;4997645;28;21080;-88
2023/12/17 00:16:02;;;;;;;2.20;2.07;;;11.20;99.90;;;;;;4995974;28;20203;-87
2023/12/17 00:18:28;;;;;;;3.57;3.20;;;11.20;99.90;;;;;;4996700;28;20240;-87
2023/12/17 00:20:53;;;;;;;1.90;1.27;;;11.10;99.90;;;;;;4979683;28;20690;-87
2023/12/17 00:23:20;;;;;;;1.33;0.70;;;11.10;99.90;;;;;;5015243;28;21130;-87
2023/12/17 00:25:46;;;;;;;2.17;0.87;;;11.10;99.90;;;;;;5002926;28;20303;-87
2023/12/17 00:28:12;;;;;;;1.43;0.87;;;11.20;99.90;;;;;;5023813;28;20651;-87
2023/12/17 00:30:37;;;;;;;2.03;1.83;;;11.10;99.90;;;;;;5006737;28;20308;-87
2023/12/17 00:33:03;;;;;;;11.67;1.53;;;11.10;99.90;;;;;;4990219;28;20745;-87
2023/12/17 00:35:29;;;;;;;1.07;0.97;;;11.20;99.90;;;;;;5024131;28;20227;-87
2023/12/17 00:37:55;;;;;;;1.40;1.30;;;11.10;99.90;;;;;;4990518;28;20226;-86
2023/12/17 00:40:21;;;;;;;1.00;0.90;;;11.20;99.90;;;;;;5024269;28;20237;-87
2023/12/17 00:42:47;;;;;;;1.03;0.97;;;11.10;99.90;;;;;;5023447;28;21025;-87
2023/12/17 00:45:13;;;;;;;5.70;0.97;;;11.10;99.90;;;;;;5007222;28;20694;-87
2023/12/17 00:47:39;;;;;;;0.70;0.70;;;11.20;99.90;;;;;;4997771;28;20310;-86
2023/12/17 00:50:05;;;;;;;1.47;1.23;;;11.20;99.90;;;;;;5033169;28;20232;-85
2023/12/17 00:52:32;;;;;;;16.83;1.23;;;11.20;99.90;;;;;;5040099;28;20245;-87
2023/12/17 00:54:58;;;;;;;0.47;0.47;;;11.10;99.90;;;;;;5025316;28;20306;-86
2023/12/17 00:57:24;;;;;;;0.53;0.53;;;11.20;99.90;;;;;;5006607;28;20226;-87
2023/12/17 00:59:49;;;;;;;1.93;0.93;;;11.20;99.90;;;;;;5015927;28;20230;-86
2023/12/17 01:02:15;;;;;;;0.87;0.70;;;11.20;99.90;;;;;;5023525;28;20624;-88
2023/12/17 01:04:41;;;;;;;1.60;1.50;;;11.20;99.90;;;;;;4989831;28;20194;-87
2023/12/17 01:07:07;;;;;;;7.47;2.27;;;11.10;99.90;;;;;;5030275;28;20194;-87
2023/12/17 01:09:33;;;;;;;0.53;0.53;;;11.20;99.90;;;;;;4990436;28;20222;-86
2023/12/17 01:12:02;;;;;;;1.60;0.90;;;11.10;99.90;;;;;;5005673;28;20250;-87
2023/12/17 01:14:32;;;;;;;0.80;0.80;;;11.20;99.90;;;;;;5038109;28;20250;-86
2023/12/17 01:16:58;;;;;;;2.80;1.77;;;11.10;99.90;;;;;;5007986;28;20219;-88
2023/12/17 01:19:24;;;;;;;1.60;1.50;;;11.00;99.90;;;;;;5040115;28;20182;-86
2023/12/17 01:21:50;;;;;;;1.53;1.13;;;11.00;99.90;;;;;;5006059;28;20241;-89
2023/12/17 01:24:15;;;;;;;4.87;2.93;;;11.00;99.90;;;;;;5023428;28;20539;-87
2023/12/17 01:26:41;;;;;;;1.00;0.77;;;11.00;99.90;;;;;;5006192;28;20237;-87
2023/12/17 01:29:07;;;;;;;15.07;3.00;;;11.20;99.90;;;;;;4989775;28;20219;-87
2023/12/17 01:31:33;;;;;;;0.73;0.73;;;11.20;99.90;;;;;;5022572;28;20186;-87
2023/12/17 01:33:59;;;;;;;2.03;1.70;;;11.20;99.90;;;;;;5006764;28;20241;-86
2023/12/17 01:36:25;;;;;;;1.77;1.27;;;11.10;99.90;;;;;;5021746;28;21028;-87
2023/12/17 01:38:50;;;;;;;8.03;2.50;;;11.10;99.90;;;;;;5005847;28;20246;-87
2023/12/17 01:41:16;;;;;;;0.73;0.73;;;11.20;99.90;;;;;;5000779;28;20234;-87
2023/12/17 01:43:42;;;;;;;0.37;0.37;;;11.10;99.90;;;;;;5038847;28;20206;-88
2023/12/17 01:46:08;;;;;;;2.67;1.77;;;11.20;99.90;;;;;;5023523;28;20666;-89
2023/12/17 01:48:35;;;;;;;4.20;1.40;;;11.00;99.90;;;;;;5006178;28;20219;-87
2023/12/17 01:51:01;;;;;;;1.40;0.40;;;11.10;99.90;;;;;;5006852;28;20226;-89
2023/12/17 01:53:28;;;;;;;0.40;0.40;;;11.00;99.90;;;;;;5006343;28;20292;-87
2023/12/17 01:55:54;;;;;;;1.13;1.07;;;11.00;99.90;;;;;;5038985;28;20225;-88
2023/12/17 01:58:21;;;;;;;0.70;0.70;;;11.00;99.90;;;;;;5007362;28;20194;-85
2023/12/17 02:00:48;;;;;;;1.17;1.10;;;10.90;99.90;;;;;;5021768;28;20317;-87
2023/12/17 02:03:14;;;;;;;0.50;0.50;;;11.00;99.90;;;;;;5006060;28;20219;-87
2023/12/17 02:05:40;;;;;;;2.23;1.40;;;11.00;99.90;;;;;;5022475;28;20229;-88
2023/12/17 02:08:05;;;;;;;2.53;0.50;;;10.90;99.90;;;;;;5005945;28;20225;-87
2023/12/17 02:10:31;;;;;;;4.63;0.70;;;10.90;99.90;;;;;;5005953;28;20194;-87
2023/12/17 02:13:01;;;;;;;3.63;1.03;;;11.10;99.90;;;;;;5023851;28;20202;-87
2023/12/17 02:15:27;;;;;;;0.30;0.30;;;11.00;99.90;;;;;;5037575;28;20741;-88
2023/12/17 02:17:53;;;;;;;1.10;1.07;;;11.00;99.90;;;;;;4988974;28;20218;-86
2023/12/17 02:20:19;;;;;;;2.43;1.33;;;11.10;99.90;;;;;;4999499;28;20337;-87
2023/12/17 02:22:48;;;;;;;0.50;0.47;;;11.00;99.90;;;;;;5012641;28;20293;-87
2023/12/17 02:25:14;;;;;;;1.53;0.90;;;11.00;99.90;;;;;;5021580;28;20174;-87
2023/12/17 02:27:41;;;;;;;2.73;1.00;;;11.10;99.90;;;;;;5020664;28;20633;-87
2023/12/17 02:30:08;;;;;;;1.53;1.13;;;11.10;99.90;;;;;;5005613;28;20229;-88
2023/12/17 02:32:33;;;;;;;0.97;0.93;;;10.90;99.90;;;;;;5005025;28;20221;-87
2023/12/17 02:34:59;;;;;;;2.47;1.60;;;11.00;99.90;;;;;;5021936;28;20676;-87
2023/12/17 02:37:25;;;;;;;1.27;0.97;;;10.90;99.90;;;;;;5020672;28;20186;-87
2023/12/17 02:39:50;;;;;;;1.20;1.10;;;10.90;99.90;;;;;;5018959;28;20804;-87
2023/12/17 02:42:17;;;;;;;0.93;0.93;;;11.00;99.90;;;;;;5002908;28;20573;-87
2023/12/17 02:44:43;;;;;;;0.83;0.83;;;10.90;99.90;;;;;;5017996;28;20666;-87
2023/12/17 02:47:09;;;;;;;1.90;1.37;;;10.90;99.90;;;;;;5001884;28;20233;-87
2023/12/17 02:49:35;;;;;;;0.70;0.70;;;11.10;99.90;;;;;;5019126;28;20206;-87
2023/12/17 02:52:01;;;;;;;4.30;1.20;;;10.90;99.90;;;;;;4975828;28;20646;-87
2023/12/17 02:54:29;;;;;;;0.80;0.80;;;11.00;99.90;;;;;;5019660;28;20257;-87
2023/12/17 02:56:55;;;;;;;0.80;0.80;;;11.00;99.90;;;;;;5001775;28;20305;-87
2023/12/17 02:59:21;;;;;;;1.13;1.13;;;10.90;99.90;;;;;;5001122;28;20206;-87
2023/12/17 03:01:46;;;;;;;2.00;1.47;;;10.90;99.90;;;;;;5018001;28;20226;-87
2023/12/17 03:04:13;;;;;;;0.83;0.83;;;11.00;99.90;;;;;;5019510;28;20187;-88
2023/12/17 03:06:39;;;;;;;0.57;0.53;;;10.90;99.90;;;;;;5018225;28;20627;-87
2023/12/17 03:09:06;;;;;;;0.70;0.70;;;10.90;99.90;;;;;;5018053;28;20685;-87
2023/12/17 03:11:32;;;;;;;1.57;0.93;;;11.00;99.90;;;;;;5021035;28;20222;-86
2023/12/17 03:13:58;;;;;;;1.63;1.13;;;10.90;99.90;;;;;;5019099;28;20305;-86
2023/12/17 03:16:26;;;;;;;4.20;1.37;;;10.80;99.90;;;;;;5021948;28;20189;-87
2023/12/17 03:18:52;;;;;;;8.37;1.80;;;10.80;99.90;;;;;;5021401;28;20753;-87
2023/12/17 03:21:18;;;;;;;0.93;0.73;;;10.70;99.90;;;;;;5020391;28;20694;-87
2023/12/17 03:23:44;;;;;;;1.27;1.17;;;10.80;99.90;;;;;;5020545;28;20276;-87
2023/12/17 03:26:10;;;;;;;1.03;1.03;;;10.70;99.90;;;;;;5000975;28;20276;-88
2023/12/17 03:28:36;;;;;;;2.63;1.93;;;10.70;99.90;;;;;;5024125;28;20217;-86
2023/12/17 03:31:02;;;;;;;4.20;1.33;;;10.70;99.90;;;;;;5011673;28;20186;-87
2023/12/17 03:33:28;;;;;;;0.93;0.93;;;10.70;99.90;;;;;;5011874;28;20209;-86
2023/12/17 03:35:54;;;;;;;1.43;0.73;;;10.80;99.90;;;;;;5044509;28;21127;-88
2023/12/17 03:38:20;;;;;;;1.40;0.93;;;10.80;99.90;;;;;;5046063;28;20586;-87
2023/12/17 03:40:46;;;;;;;1.13;1.13;;;10.70;99.90;;;;;;5011195;28;20233;-86
2023/12/17 03:43:12;;;;;;;5.33;0.97;;;10.80;99.90;;;;;;4995894;28;20189;-87
2023/12/17 03:45:38;;;;;;;2.90;2.13;;;10.80;99.90;;;;;;5011043;28;20551;-85
2023/12/17 03:48:05;;;;;;;2.33;2.17;;;10.80;99.90;;;;;;4994948;28;20562;-87
2023/12/17 03:50:31;;;;;;;2.17;1.17;;;10.90;99.90;;;;;;5003404;28;20225;-87
2023/12/17 03:52:57;;;;;;;2.20;1.03;;;10.90;99.90;;;;;;5008130;28;20677;-87
2023/12/17 03:55:22;;;;;;;0.53;0.53;;;10.80;99.90;;;;;;4992582;28;20214;-86
2023/12/17 03:57:48;;;;;;;1.10;1.03;;;10.90;99.90;;;;;;5023874;28;20239;-86
2023/12/17 04:00:15;;;;;;;5.47;1.90;;;10.90;99.90;;;;;;5008181;28;21071;-87
2023/12/17 04:02:41;;;;;;;0.97;0.97;;;10.70;99.90;;;;;;5008297;28;20226;-87
2023/12/17 04:05:08;;;;;;;1.20;1.17;;;10.80;99.90;;;;;;5007153;28;20790;-88
2023/12/17 04:07:34;;;;;;;1.83;1.73;;;10.70;99.90;;;;;;5024063;28;20717;-87
2023/12/17 04:10:00;;;;;;;1.33;1.20;;;10.80;99.90;;;;;;5024534;28;20272;-87
2023/12/17 04:12:26;;;;;;;2.27;1.50;;;10.70;99.90;;;;;;5008353;28;20268;-88
2023/12/17 04:14:52;;;;;;;1.27;1.17;;;10.60;99.90;;;;;;5007815;28;20256;-86
2023/12/17 04:17:18;;;;;;;3.27;1.07;;;10.60;99.90;;;;;;5008092;28;20229;-87
2023/12/17 04:19:44;;;;;;;1.50;1.17;;;10.70;99.90;;;;;;5024351;28;20201;-87
2023/12/17 04:22:09;;;;;;;1.23;1.20;;;10.70;99.90;;;;;;5008140;28;20217;-87
2023/12/17 04:24:35;;;;;;;1.97;1.20;;;10.60;99.90;;;;;;5023125;28;20728;-86
2023/12/17 04:27:01;;;;;;;1.47;1.37;;;10.60;99.90;;;;;;5008034;28;20229;-87
2023/12/17 04:29:27;;;;;;;0.93;0.87;;;10.60;99.90;;;;;;5009607;28;20352;-85
2023/12/17 04:31:52;;;;;;;2.30;1.30;;;10.40;99.90;;;;;;5042118;28;21055;-86
2023/12/17 04:34:21;;;;;;;0.40;0.40;;;10.50;99.90;;;;;;5026745;28;20190;-88
2023/12/17 04:36:46;;;;;;;1.23;1.13;;;10.40;99.90;;;;;;4992495;28;20226;-86
2023/12/17 04:39:12;;;;;;;1.77;1.47;;;10.50;99.90;;;;;;5025891;28;20249;-85
2023/12/17 04:41:42;;;;;;;2.00;1.80;;;10.40;99.90;;;;;;5026562;28;20218;-87
2023/12/17 04:44:08;;;;;;;1.47;1.30;;;10.40;99.90;;;;;;5025181;28;20300;-86
2023/12/17 04:46:34;;;;;;;1.93;1.27;;;10.30;99.90;;;;;;5025068;28;20198;-87
2023/12/17 04:49:00;;;;;;;2.03;1.83;;;10.40;99.90;;;;;;5026226;28;20190;-85
2023/12/17 04:51:26;;;;;;;0.80;0.80;;;10.30;99.90;;;;;;5008929;28;20220;-87
2023/12/17 04:53:52;;;;;;;2.20;0.90;;;10.40;99.90;;;;;;5042424;28;20233;-86
2023/12/17 04:56:19;;;;;;;1.23;1.23;;;10.30;99.90;;;;;;5026816;28;21148;-87
2023/12/17 04:58:45;;;;;;;1.30;1.23;;;10.40;99.90;;;;;;5009506;28;20714;-86
2023/12/17 05:01:11;;;;;;;1.13;0.83;;;10.50;99.90;;;;;;5010461;28;20198;-87
2023/12/17 05:03:38;;;;;;;5.10;1.17;;;10.40;99.90;;;;;;5010256;28;20241;-87
2023/12/17 05:06:05;;;;;;;4.93;1.00;;;10.40;99.90;;;;;;5043384;28;20271;-88
2023/12/17 05:08:31;;;;;;;1.00;1.00;;;10.40;99.90;;;;;;5026241;28;20222;-87
2023/12/17 05:10:57;;;;;;;1.83;1.73;;;10.50;99.90;;;;;;4993275;28;20271;-86
2023/12/17 05:13:22;;;;;;;4.23;2.20;;;10.60;99.90;;;;;;5017920;28;20387;-87
2023/12/17 05:15:49;;;;;;;0.53;0.53;;;10.60;99.90;;;;;;5026440;28;20674;-87
2023/12/17 05:18:14;;;;;;;5.23;1.10;;;10.70;99.90;;;;;;5026025;28;20597;-87
2023/12/17 05:20:41;;;;;;;1.73;1.30;;;10.70;99.90;;;;;;5010364;28;20308;-87
2023/12/17 05:23:08;;;;;;;5.07;1.03;;;10.60;99.90;;;;;;5025642;28;20240;-86
2023/12/17 05:25:34;;;;;;;0.80;0.80;;;10.70;99.90;;;;;;5033601;28;20217;-87
2023/12/17 05:28:00;;;;;;;3.93;0.97;;;10.60;99.90;;;;;;4993288;28;20262;-87
2023/12/17 05:30:25;;;;;;;2.67;2.53;;;10.80;99.90;;;;;;5009550;28;20309;-87
2023/12/17 05:32:52;;;;;;;2.10;2.00;;;10.90;99.90;;;;;;5042064;28;20229;-87
2023/12/17 05:35:17;;;;;;;1.77;0.83;;;10.70;99.90;;;;;;5025306;28;20236;-86
2023/12/17 05:37:43;;;;;;;3.77;2.17;;;10.90;99.90;;;;;;5008099;28;20190;-87
2023/12/17 05:40:09;;;;;;;2.93;1.63;;;10.90;99.90;;;;;;4993787;28;20304;-87
2023/12/17 05:42:36;;;;;;;2.13;1.93;;;10.80;99.90;;;;;;5003426;28;20217;-87
2023/12/17 05:45:02;;;;;;;1.20;1.13;;;10.80;99.90;;;;;;5003351;28;20311;-86
2023/12/17 05:47:30;;;;;;;1.27;1.27;;;10.90;99.90;;;;;;5025807;28;20221;-87
2023/12/17 05:49:56;;;;;;;1.03;1.03;;;10.90;99.90;;;;;;5035372;28;20803;-87
2023/12/17 05:52:22;;;;;;;2.60;2.30;;;10.90;99.90;;;;;;5009812;28;20197;-87
2023/12/17 05:54:47;;;;;;;2.97;1.30;;;10.90;99.90;;;;;;4993095;28;20245;-86
2023/12/17 05:57:13;;;;;;;1.60;1.50;;;10.90;99.90;;;;;;5041227;28;20209;-87
2023/12/17 05:59:39;;;;;;;1.57;1.30;;;10.90;99.90;;;;;;5009077;28;20271;-85
2023/12/17 06:02:06;;;;;;;19.53;2.03;;;10.80;99.90;;;;;;5007816;28;20233;-87
2023/12/17 06:04:32;;;;;;;1.47;1.33;;;10.90;99.90;;;;;;5040846;28;20191;-88
2023/12/17 06:06:58;;;;;;;2.73;2.53;;;10.90;99.90;;;;;;5025388;28;20228;-85
2023/12/17 06:09:25;;;;;;;1.53;1.40;;;10.90;99.90;;;;;;5025788;28;20221;-88
2023/12/17 06:11:50;;;;;;;7.57;2.07;;;10.80;99.90;;;;;;5042939;28;20234;-86
2023/12/17 06:14:17;;;;;;;1.67;1.57;;;10.90;99.90;;;;;;4992205;28;20623;-87
2023/12/17 06:16:44;;;;;;;4.10;2.00;;;10.90;99.90;;;;;;5039690;28;20595;-87
2023/12/17 06:19:11;;;;;;;3.90;2.60;;;10.90;99.90;;;;;;5000676;28;20247;-87
2023/12/17 06:21:38;;;;;;;4.60;1.87;;;10.80;99.90;;;;;;5009242;28;20234;-86
2023/12/17 06:24:04;;;;;;;3.03;2.57;;;10.90;99.90;;;;;;5022917;28;20253;-87
2023/12/17 06:26:30;;;;;;;3.03;2.73;;;10.80;99.90;;;;;;5008003;28;20245;-87
2023/12/17 06:28:57;;;;;;;3.67;3.47;;;10.90;99.90;;;;;;5023704;28;20222;-86
2023/12/17 06:31:23;;;;;;;2.47;2.27;;;10.80;99.90;;;;;;5022597;28;20190;-88
2023/12/17 06:33:49;;;;;;;4.43;4.10;;;10.90;99.90;;;;;;5024235;28;20218;-86
2023/12/17 06:36:15;;;;;;;1.77;1.63;;;10.90;99.90;;;;;;5008377;28;20240;-85
2023/12/17 06:38:41;;;;;;;1.30;1.20;;;10.70;99.90;;;;;;5039953;28;20308;-87
2023/12/17 06:41:10;;;;;;;9.53;1.97;;;10.70;99.90;;;;;;4981853;28;21208;-87
2023/12/17 06:43:36;;;;;;;2.23;2.10;;;10.90;99.90;;;;;;5040925;28;20216;-85
2023/12/17 06:46:06;;;;;;;7.83;2.97;;;10.90;99.90;;;;;;5025343;28;20201;-87
2023/12/17 06:48:35;;;;;;;1.17;1.17;;;10.90;99.90;;;;;;5019778;28;20218;-86
2023/12/17 06:51:02;;;;;;;5.40;3.83;;;10.70;99.90;;;;;;5039810;28;20682;-87
2023/12/17 06:53:28;;;;;;;4.00;1.80;;;10.60;99.90;;;;;;5024645;28;20221;-87
2023/12/17 06:55:54;;;;;;;1.00;0.97;;;10.70;99.90;;;;;;5040816;28;20218;-86
2023/12/17 06:58:20;;;;;;;16.10;3.13;;;10.60;99.90;;;;;;5018465;28;20213;-87
2023/12/17 07:00:46;;;;;;;2.00;1.87;;;10.60;99.90;;;;;;5023989;28;20762;-88
2023/12/17 07:03:12;;;;;;;4.87;3.43;;;10.60;99.90;;;;;;5008004;28;20218;-86
2023/12/17 07:05:38;;;;;;;2.60;1.87;;;10.70;99.90;;;;;;5024444;28;20369;-88
2023/12/17 07:08:05;;;;;;;6.97;2.87;;;10.70;99.90;;;;;;5039695;28;20690;-87
2023/12/17 07:10:31;;;;;;;3.20;1.67;;;10.60;99.90;;;;;;5022938;28;20198;-87
2023/12/17 07:12:57;;;;;;;2.67;2.00;;;10.60;99.90;;;;;;5022631;28;20201;-87
2023/12/17 07:15:22;;;;;;;4.47;3.13;;;10.70;99.90;;;;;;5006957;28;20271;-88
2023/12/17 07:17:48;;;;;;;2.50;1.83;;;10.70;99.90;;;;;;5015893;28;20214;-88
2023/12/17 07:20:14;;;;;;;1.40;1.30;;;10.70;99.90;;;;;;5006719;28;20632;-88
2023/12/17 07:22:40;;;;;;;2.87;2.67;;;10.70;99.90;;;;;;5030769;28;20225;-88
2023/12/17 07:25:06;;;;;;;1.80;1.30;;;10.60;99.90;;;;;;5007562;28;20309;-88
2023/12/17 07:27:32;;;;;;;1.77;1.70;;;10.60;99.90;;;;;;5006662;28;20323;-87
2023/12/17 07:29:58;;;;;;;6.43;3.23;;;10.70;99.90;;;;;;5039557;28;20308;-89
2023/12/17 07:32:23;;;;;;;2.30;2.20;;;10.60;99.90;;;;;;5022640;28;20221;-87
2023/12/17 07:34:49;;;;;;;11.80;1.33;;;10.50;99.90;;;;;;5005273;28;20221;-85
2023/12/17 07:37:16;;;;;;;2.33;2.17;;;10.60;99.90;;;;;;5006992;28;20193;-86
2023/12/17 07:39:42;;;;;;;2.87;2.13;;;10.70;99.90;;;;;;5023535;28;20222;-87
2023/12/17 07:42:07;;;;;;;1.50;1.07;;;10.60;99.90;;;;;;5007009;28;20321;-87
2023/12/17 07:44:33;;;;;;;11.20;2.87;;;10.60;99.90;;;;;;5024948;28;20305;-88
2023/12/17 07:47:00;;;;;;;12.00;3.10;;;10.50;99.90;;;;;;5024360;28;20225;-87
2023/12/17 07:49:25;;;;;;;1.17;0.87;;;10.50;99.90;;;;;;5039414;28;20228;-86
2023/12/17 07:51:52;;;;;;;7.00;3.73;;;10.50;99.90;;;;;;5024248;28;20954;-87
2023/12/17 07:54:18;;;;;;;1.00;0.93;;;10.50;99.90;;;;;;5023525;28;20541;-85
2023/12/17 07:56:44;;;;;;;2.93;2.37;;;10.60;99.90;;;;;;5039217;28;20229;-87
2023/12/17 07:59:10;;;;;;;2.57;1.30;;;10.40;99.90;;;;;;4997708;28;20749;-85
2023/12/17 08:01:36;;;;;;;1.27;1.17;;;10.50;99.90;;;;;;4998262;28;20210;-87
2023/12/17 08:04:02;;;;;;;0.93;0.93;;;10.50;99.90;;;;;;5023608;28;20235;-86
2023/12/17 08:06:28;;;;;;;1.60;1.40;;;10.40;99.90;;;;;;4990448;28;21056;-86
2023/12/17 08:08:54;;;;;;;1.70;1.37;;;10.40;99.90;;;;;;4990777;28;20801;-87
2023/12/17 08:11:21;;;;;;;4.03;3.53;;;10.40;99.90;;;;;;5040962;28;20271;-87
2023/12/17 08:13:47;;;;;;;3.60;3.33;;;10.50;99.90;;;;;;5023850;28;20230;-89
2023/12/17 08:16:13;;;;;;;3.57;1.57;;;10.30;99.90;;;;;;5040151;28;20186;-87
2023/12/17 08:18:38;;;;;;;8.53;2.17;;;10.50;99.90;;;;;;5010312;28;20700;-88
2023/12/17 08:21:05;;;;;;;13.27;2.03;;;10.30;99.90;;;;;;5025258;28;20228;-87
2023/12/17 08:23:30;;;;;;;6.60;1.80;;;10.40;99.90;;;;;;5010272;28;20222;-86
2023/12/17 08:25:56;;;;;;;5.30;2.67;;;10.40;99.90;;;;;;5008603;28;20233;-87
2023/12/17 08:28:23;;;;;;;3.70;1.40;;;10.30;99.90;;;;;;5010864;28;20206;-86
2023/12/17 08:30:49;;;;;;;1.40;1.37;;;10.40;99.90;;;;;;5026341;28;20308;-86
2023/12/17 08:33:15;;;;;;;8.37;2.00;;;10.40;99.90;;;;;;5042374;28;20669;-87
2023/12/17 08:35:43;;;;;;;4.27;1.97;;;10.30;99.90;;;;;;5044454;28;20225;-87
2023/12/17 08:38:08;;;;;;;1.77;1.67;;;10.20;99.90;;;;;;5042079;28;20221;-85
2023/12/17 08:40:39;;;;;;;3.93;2.23;;;10.40;99.90;;;;;;4990625;28;20208;-86
2023/12/17 08:43:08;;;;;;;23.27;6.27;;;10.20;99.90;;;;;;5043733;28;20187;-85
2023/12/17 08:45:34;;;;;;;3.07;1.83;;;10.20;99.90;;;;;;5024167;28;20241;-86
2023/12/17 08:48:01;;;;;;;3.63;3.20;;;10.20;99.90;;;;;;5008511;28;20282;-85
2023/12/17 08:50:26;;;;;;;1.10;1.10;;;10.20;99.90;;;;;;5041476;28;20221;-86
2023/12/17 08:52:52;;;;;;;1.30;1.20;;;10.20;99.90;;;;;;5010313;28;21110;-87
2023/12/17 08:55:19;;;;;;;1.87;1.60;;;10.30;99.90;;;;;;5010369;28;20190;-88
2023/12/17 08:57:46;;;;;;;1.03;1.03;;;10.30;99.90;;;;;;5034760;28;20241;-87
2023/12/17 09:00:13;;;;;;;0.73;0.73;;;10.40;99.90;;;;;;5026915;28;20214;-87
2023/12/17 09:02:39;;;;;;;2.30;1.87;;;10.20;99.90;;;;;;5026923;28;20229;-87
2023/12/17 09:05:05;;;;;;;2.73;2.03;;;10.30;99.90;;;;;;5025280;28;20580;-86
2023/12/17 09:07:32;;;;;;;2.27;2.17;;;10.40;99.90;;;;;;5008856;28;20974;-85
2023/12/17 09:09:58;;;;;;;5.40;1.93;;;10.50;99.90;;;;;;5024581;28;20235;-85
2023/12/17 09:12:23;;;;;;;2.57;2.17;;;10.50;99.90;;;;;;5008036;28;20222;-87
2023/12/17 09:14:49;;;;;;;4.23;1.83;;;10.40;99.90;;;;;;5024371;28;20230;-87
2023/12/17 09:17:15;;;;;;;2.07;1.87;;;10.50;99.90;;;;;;5024487;28;20218;-86
2023/12/17 09:19:41;;;;;;;0.93;0.87;;;10.50;99.90;;;;;;5024175;28;20300;-85
2023/12/17 09:22:07;;;;;;;6.67;2.20;;;10.60;99.90;;;;;;5009017;28;20216;-84
2023/12/17 09:24:32;;;;;;;1.80;1.70;;;10.70;99.90;;;;;;5015148;28;20226;-87
2023/12/17 09:27:00;;;;;;;9.63;2.27;;;10.70;99.90;;;;;;5022487;28;20238;-86
2023/12/17 09:29:26;;;;;;;11.03;2.60;;;10.70;99.90;;;;;;5042079;28;20304;-86
2023/12/17 09:31:52;;;;;;;12.20;2.07;;;10.70;99.90;;;;;;5024821;28;20222;-87
2023/12/17 09:34:17;;;;;;;5.37;3.33;;;10.70;99.90;;;;;;5016636;28;20186;-86
2023/12/17 09:36:43;;;;;;;7.20;3.17;;;10.80;99.90;;;;;;5008391;28;20218;-85
2023/12/17 09:39:09;;;;;;;0.37;0.37;;;10.80;99.90;;;;;;4991780;28;20268;-86
2023/12/17 09:41:36;;;;;;;3.43;2.10;;;10.80;99.90;;;;;;5007440;28;20614;-86
2023/12/17 09:44:04;;;;;;;4.47;3.60;;;10.80;99.90;;;;;;5032994;28;20214;-85
2023/12/17 09:46:30;;;;;;;2.50;2.30;;;10.80;99.90;;;;;;5005985;28;20190;-86
2023/12/17 09:48:56;;;;;;;1.90;1.80;;;10.90;99.90;;;;;;5024035;28;20186;-87
2023/12/17 09:51:24;;;;;;;3.87;2.17;;;10.80;99.90;;;;;;5006746;28;20209;-85
2023/12/17 09:53:49;;;;;;;3.83;2.43;;;10.90;99.90;;;;;;5022448;28;20325;-86
2023/12/17 09:56:15;;;;;;;1.93;1.83;;;10.80;99.90;;;;;;5023331;28;20708;-86
2023/12/17 09:58:41;;;;;;;5.53;3.67;;;10.90;99.90;;;;;;4996803;28;20200;-85
2023/12/17 10:01:07;;;;;;;2.10;1.63;;;10.90;99.90;;;;;;5038381;28;20222;-87
2023/12/17 10:03:33;;;;;;;5.07;1.73;;;11.00;99.90;;;;;;4997476;28;20218;-87
2023/12/17 10:05:59;;;;;;;16.70;3.43;;;11.00;99.90;;;;;;5013814;28;20214;-86
2023/12/17 10:08:25;;;;;;;10.90;1.80;;;11.00;99.90;;;;;;5024020;28;20241;-86
2023/12/17 10:10:51;;;;;;;1.90;1.70;;;11.00;99.90;;;;;;5006055;28;20759;-86
2023/12/17 10:13:19;;;;;;;1.90;1.57;;;11.10;99.90;;;;;;5017982;28;20198;-86
2023/12/17 10:15:54;;;;;;;1.93;1.50;;;11.00;99.90;;;;;;5015224;28;20209;-86
2023/12/17 10:18:21;;;;;;;5.70;2.77;;;11.10;99.90;;;;;;5022819;28;20365;-84
2023/12/17 10:20:48;;;;;;;6.67;2.70;;;11.10;99.90;;;;;;5040272;28;20229;-85
2023/12/17 10:23:14;;;;;;;3.90;2.50;;;11.00;99.90;;;;;;5039563;28;20304;-85
2023/12/17 10:25:41;;;;;;;2.60;2.40;;;11.10;99.90;;;;;;5037814;28;20198;-85
2023/12/17 10:28:09;;;;;;;3.27;1.50;;;11.10;99.90;;;;;;5041106;28;20221;-85
2023/12/17 10:30:36;;;;;;;10.47;2.40;;;11.10;99.90;;;;;;5039280;28;20264;-85
2023/12/17 10:33:02;;;;;;;1.73;1.60;;;11.10;99.90;;;;;;5021604;28;20222;-85
2023/12/17 10:35:30;;;;;;;3.40;1.57;;;11.10;99.90;;;;;;5020509;28;20297;-86
2023/12/17 10:38:01;;;;;;;1.10;1.03;;;11.20;99.90;;;;;;5022858;28;20348;-86
2023/12/17 10:40:30;;;;;;;1.00;1.00;;;11.10;99.90;;;;;;4988306;28;20193;-84
2023/12/17 10:42:57;;;;;;;2.33;2.20;;;11.10;99.90;;;;;;5005179;28;20218;-84
2023/12/17 10:45:24;;;;;;;7.20;2.67;;;11.20;99.90;;;;;;5018664;28;20666;-82
2023/12/17 10:47:58;;;;;;;3.87;1.77;;;11.20;99.90;;;;;;5036057;28;20221;-84
2023/12/17 10:50:25;;;;;;;2.73;2.23;;;11.20;99.90;;;;;;4980089;28;20213;-85
2023/12/17 10:52:51;;;;;;;3.53;3.23;;;11.30;99.90;;;;;;5037680;28;20209;-84
2023/12/17 10:55:19;;;;;;;4.57;3.93;;;11.20;99.90;;;;;;5004992;28;20321;-84
2023/12/17 10:58:01;;;;;;;28.47;2.80;;;11.20;99.90;;;;;;5003627;28;20237;-83
2023/12/17 11:00:30;;;;;;;2.20;1.93;;;11.30;99.90;;;;;;5020198;28;20290;-85
2023/12/17 11:02:59;;;;;;;3.60;2.50;;;11.20;99.90;;;;;;5037058;28;20237;-84
2023/12/17 11:05:25;;;;;;;6.00;3.27;;;11.20;99.90;;;;;;5020180;28;20241;-84
2023/12/17 11:07:52;;;;;;;2.37;2.17;;;11.20;99.90;;;;;;5002729;28;20363;-84
2023/12/17 11:10:18;;;;;;;8.50;4.50;;;11.20;99.90;;;;;;5021104;28;20409;-84
2023/12/17 11:12:47;;;;;;;14.53;2.37;;;11.20;99.90;;;;;;5020363;28;20738;-84
2023/12/17 11:15:14;;;;;;;1.87;1.73;;;11.30;99.90;;;;;;5005386;28;20699;-84
2023/12/17 11:17:41;;;;;;;3.93;1.87;;;11.20;99.90;;;;;;5020489;28;20218;-84
2023/12/17 11:20:08;;;;;;;3.77;1.80;;;11.30;99.90;;;;;;5022115;28;20636;-85
2023/12/17 11:22:36;;;;;;;3.87;2.53;;;11.30;99.90;;;;;;5020532;28;20577;-84
2023/12/17 11:25:02;;;;;;;2.70;2.50;;;11.30;99.90;;;;;;5022299;28;20590;-84
2023/12/17 11:27:31;;;;;;;5.00;2.20;;;11.30;99.90;;;;;;5004395;28;20265;-84
2023/12/17 11:29:57;;;;;;;5.23;3.77;;;11.20;99.90;;;;;;5027625;28;20295;-84
2023/12/17 11:32:27;;;;;;;3.70;2.60;;;11.20;99.90;;;;;;5038786;28;20697;-84
2023/12/17 11:34:54;;;;;;;7.50;3.53;;;11.20;99.90;;;;;;5038695;28;20226;-84
2023/12/17 11:37:22;;;;;;;2.80;1.63;;;11.20;99.90;;;;;;5020223;28;20701;-84
2023/12/17 11:39:49;;;;;;;7.87;3.33;;;11.30;99.90;;;;;;5020556;28;20222;-84
2023/12/17 11:42:17;;;;;;;2.00;1.83;;;11.20;99.90;;;;;;5020257;28;20238;-84
2023/12/17 11:44:51;;;;;;;2.70;2.50;;;11.30;99.90;;;;;;5020638;28;20225;-84
2023/12/17 11:47:25;;;;;;;4.33;3.27;;;11.30;99.90;;;;;;5035275;28;20217;-84
2023/12/17 11:50:00;;;;;;;6.00;2.80;;;11.30;99.90;;;;;;5020348;28;20752;-83
2023/12/17 11:52:28;;;;;;;2.50;2.30;;;11.30;99.90;;;;;;5041751;28;20619;-84
2023/12/17 11:55:03;;;;;;;4.57;2.77;;;11.30;99.90;;;;;;5041673;28;20217;-85
2023/12/17 11:57:30;;;;;;;6.77;2.53;;;11.40;99.90;;;;;;5041715;28;20607;-84
2023/12/17 11:59:56;;;;;;;3.83;3.10;;;11.30;99.90;;;;;;5009458;28;20743;-84
2023/12/17 12:02:26;;;;;;;2.80;1.57;;;11.20;99.90;;;;;;5042611;28;20291;-86
2023/12/17 12:04:54;;;;;;;3.10;2.60;;;11.20;99.90;;;;;;5026236;28;20324;-85
2023/12/17 12:07:20;;;;;;;2.70;2.37;;;11.20;99.90;;;;;;5026239;28;20183;-86
2023/12/17 12:09:47;;;;;;;2.80;2.23;;;11.20;99.90;;;;;;5026342;28;20548;-86
2023/12/17 12:12:21;;;;;;;7.03;3.13;;;11.20;99.90;;;;;;5043812;28;21007;-85
2023/12/17 12:14:50;;;;;;;8.63;4.23;;;11.20;99.90;;;;;;5025098;28;20947;-85
2023/12/17 12:17:41;;;;;;;2.23;2.03;;;11.30;99.90;;;;;;5043965;28;20230;-86
2023/12/17 12:20:08;;;;;;;3.47;2.40;;;11.20;99.90;;;;;;5026036;28;20304;-86
2023/12/17 12:22:38;;;;;;;2.63;2.47;;;11.20;99.90;;;;;;5008618;28;20214;-86
2023/12/17 12:25:05;;;;;;;3.10;2.33;;;11.10;99.90;;;;;;5010582;28;20182;-85
2023/12/17 12:27:31;;;;;;;2.90;2.70;;;11.20;99.90;;;;;;5024918;28;20249;-84
2023/12/17 12:29:57;;;;;;;5.63;4.20;;;11.10;99.90;;;;;;4992028;28;20558;-85
2023/12/17 12:32:30;;;;;;;6.77;4.80;;;11.20;99.90;;;;;;5023930;28;20251;-85
2023/12/17 12:34:57;;;;;;;7.57;3.67;;;11.10;99.90;;;;;;5025668;28;20245;-86
2023/12/17 12:37:52;;;;;;;3.87;3.33;;;11.20;99.90;;;;;;5043301;28;20210;-85
2023/12/17 12:40:34;;;;;;;3.43;3.23;;;11.20;99.90;;;;;;5009161;28;20221;-86
2023/12/17 12:43:01;;;;;;;4.57;3.43;;;11.70;99.90;;;;;;5025456;28;20246;-85